createdAt,value
2019-05-26T00:02:16.802Z,8.80
2019-05-26T00:04:44.503Z,9.93
2019-05-26T00:07:12.270Z,9.13
2019-05-26T00:09:40.063Z,9.73
2019-05-26T00:12:08.017Z,9.13
2019-05-26T00:14:35.826Z,9.17
2019-05-26T00:17:05.502Z,8.97
2019-05-26T00:19:33.229Z,8.73
2019-05-26T00:22:01.111Z,8.53
2019-05-26T00:24:28.993Z,8.73
2019-05-26T00:26:58.840Z,8.83
2019-05-26T00:29:27.170Z,8.87
2019-05-26T00:31:56.070Z,8.50
2019-05-26T00:34:23.840Z,8.87
2019-05-26T00:36:51.774Z,9.33
2019-05-26T00:39:19.465Z,9.23
2019-05-26T00:41:47.898Z,9.30
2019-05-26T00:44:15.619Z,9.47
2019-05-26T00:46:45.298Z,8.50
2019-05-26T00:49:13.989Z,9.33
2019-05-26T00:51:45.513Z,9.43
2019-05-26T00:54:16.934Z,9.37
2019-05-26T00:56:45.023Z,9.43
2019-05-26T00:59:12.750Z,8.53
2019-05-26T01:01:40.605Z,8.83
2019-05-26T01:04:08.482Z,9.47
2019-05-26T01:06:38.005Z,9.97
2019-05-26T01:09:07.895Z,9.73
2019-05-26T01:11:35.640Z,9.93
2019-05-26T01:14:05.177Z,10.70
2019-05-26T01:16:33.035Z,9.90
2019-05-26T01:19:01.212Z,10.47
2019-05-26T01:21:29.185Z,10.60
2019-05-26T01:23:56.986Z,9.40
2019-05-26T01:26:24.796Z,10.17
2019-05-26T01:28:52.870Z,10.70
2019-05-26T01:31:22.982Z,10.80
2019-05-26T01:33:51.062Z,10.90
2019-05-26T01:36:19.749Z,9.77
2019-05-26T01:38:49.056Z,10.30
2019-05-26T01:41:17.236Z,10.63
2019-05-26T01:43:44.920Z,10.53
2019-05-26T01:46:12.656Z,10.63
2019-05-26T01:48:41.744Z,11.47
2019-05-26T01:51:09.566Z,10.70
2019-05-26T01:53:37.494Z,11.27
2019-05-26T01:56:05.178Z,11.40
2019-05-26T01:58:33.219Z,10.53
2019-05-26T02:01:01.027Z,11.30
2019-05-26T02:03:28.850Z,10.90
2019-05-26T02:05:56.606Z,11.27
2019-05-26T02:08:38.412Z,10.57
2019-05-26T02:10:54.068Z,10.77
2019-05-26T02:13:23.394Z,10.87
2019-05-26T02:15:51.039Z,10.67
2019-05-26T02:18:18.662Z,10.77
2019-05-26T02:20:46.582Z,11.10
2019-05-26T02:23:14.340Z,11.00
2019-05-26T02:25:42.070Z,11.47
2019-05-26T02:28:09.911Z,11.30
2019-05-26T02:30:37.781Z,11.53
2019-05-26T02:33:05.442Z,11.50
2019-05-26T02:35:33.239Z,11.13
2019-05-26T02:38:03.247Z,11.27
2019-05-26T02:40:31.083Z,10.83
2019-05-26T02:42:59.206Z,12.77
2019-05-26T02:45:27.027Z,11.33
2019-05-26T02:47:54.847Z,11.63
2019-05-26T02:50:25.818Z,11.50
2019-05-26T02:52:54.173Z,11.63
2019-05-26T02:55:23.970Z,12.33
2019-05-26T02:57:53.719Z,11.60
2019-05-26T03:00:43.602Z,12.43
2019-05-26T03:03:13.823Z,11.87
2019-05-26T03:05:43.725Z,11.40
2019-05-26T03:08:12.295Z,12.50
2019-05-26T03:10:44.385Z,11.47
2019-05-26T03:13:17.428Z,11.70
2019-05-26T03:15:46.447Z,12.73
2019-05-26T03:18:16.976Z,11.70
2019-05-26T03:20:47.176Z,11.67
2019-05-26T03:23:16.639Z,11.47
2019-05-26T03:25:44.472Z,10.97
2019-05-26T03:28:12.242Z,11.63
2019-05-26T03:30:41.343Z,11.47
2019-05-26T03:33:11.994Z,11.40
2019-05-26T03:35:39.970Z,11.87
2019-05-26T03:38:07.943Z,12.73
2019-05-26T03:40:38.015Z,11.50
2019-05-26T03:43:05.702Z,11.97
2019-05-26T03:46:08.067Z,11.30
2019-05-26T03:48:36.429Z,12.73
2019-05-26T03:51:06.463Z,11.20
2019-05-26T03:53:34.337Z,11.63
2019-05-26T03:56:02.209Z,11.73
2019-05-26T03:58:30.149Z,11.27
2019-05-26T04:00:58.034Z,11.07
2019-05-26T04:03:25.815Z,10.33
2019-05-26T04:05:53.875Z,10.10
2019-05-26T04:08:22.033Z,10.57
2019-05-26T04:10:50.279Z,10.20
2019-05-26T04:13:22.736Z,10.13
2019-05-26T04:15:50.629Z,11.10
2019-05-26T04:18:18.798Z,10.63
2019-05-26T04:20:48.135Z,10.87
2019-05-26T04:23:16.180Z,11.47
2019-05-26T04:25:56.682Z,9.40
2019-05-26T04:28:26.927Z,9.00
2019-05-26T04:30:55.170Z,9.83
2019-05-26T04:33:23.353Z,8.97
2019-05-26T04:35:55.342Z,9.00
2019-05-26T04:38:23.403Z,9.43
2019-05-26T04:40:52.246Z,8.13
2019-05-26T04:43:20.327Z,9.10
2019-05-26T04:45:48.167Z,8.73
2019-05-26T04:48:16.564Z,7.90
2019-05-26T04:50:44.535Z,8.10
2019-05-26T04:53:14.126Z,8.30
2019-05-26T04:55:42.053Z,7.97
2019-05-26T04:58:09.802Z,7.43
2019-05-26T05:00:37.625Z,7.23
2019-05-26T05:03:05.907Z,6.73
2019-05-26T05:05:33.904Z,7.30
2019-05-26T05:08:01.842Z,6.33
2019-05-26T05:10:41.962Z,7.77
2019-05-26T05:12:59.432Z,7.07
2019-05-26T05:15:27.188Z,8.03
2019-05-26T05:17:54.971Z,6.47
2019-05-26T05:20:22.832Z,6.60
2019-05-26T05:22:51.529Z,7.50
2019-05-26T05:25:19.337Z,7.40
2019-05-26T05:27:47.047Z,7.60
2019-05-26T05:30:15.942Z,7.97
2019-05-26T05:32:43.686Z,8.13
2019-05-26T05:35:12.768Z,7.97
2019-05-26T05:37:42.641Z,7.90
2019-05-26T05:40:10.865Z,7.93
2019-05-26T05:42:39.210Z,8.10
2019-05-26T05:45:21.085Z,7.17
2019-05-26T05:47:49.132Z,6.87
2019-05-26T05:50:18.296Z,6.77
2019-05-26T05:52:46.175Z,5.93
2019-05-26T05:55:15.688Z,5.93
2019-05-26T05:57:43.659Z,5.80
2019-05-26T06:00:11.949Z,5.43
2019-05-26T06:02:39.566Z,5.40
2019-05-26T06:05:08.616Z,5.53
2019-05-26T06:07:36.576Z,5.00
2019-05-26T06:10:10.196Z,5.27
2019-05-26T06:12:38.054Z,4.53
2019-05-26T06:15:08.073Z,5.77
2019-05-26T06:17:36.808Z,4.83
2019-05-26T06:20:10.317Z,5.40
2019-05-26T06:22:38.089Z,5.53
2019-05-26T06:25:06.601Z,5.37
2019-05-26T06:27:34.670Z,5.23
2019-05-26T06:30:03.227Z,5.23
2019-05-26T06:32:31.025Z,5.57
2019-05-26T06:35:01.909Z,5.33
2019-05-26T06:37:30.116Z,5.80
2019-05-26T06:40:01.180Z,5.83
2019-05-26T06:42:29.419Z,5.20
2019-05-26T06:44:57.266Z,6.03
2019-05-26T06:47:25.498Z,5.57
2019-05-26T06:49:53.625Z,6.00
2019-05-26T06:52:21.334Z,6.37
2019-05-26T06:54:49.090Z,5.63
2019-05-26T06:57:16.799Z,4.90
2019-05-26T06:59:44.608Z,5.47
2019-05-26T07:02:12.445Z,5.07
2019-05-26T07:04:41.999Z,5.13
2019-05-26T07:07:09.709Z,5.10
2019-05-26T07:09:38.774Z,4.43
2019-05-26T07:12:07.881Z,4.47
2019-05-26T07:14:35.742Z,4.70
2019-05-26T07:17:05.249Z,5.27
2019-05-26T07:19:32.994Z,5.03
2019-05-26T07:22:04.739Z,5.03
2019-05-26T07:24:32.758Z,4.77
2019-05-26T07:27:00.815Z,4.10
2019-05-26T07:29:28.591Z,4.23
2019-05-26T07:31:59.510Z,4.40
2019-05-26T07:34:28.996Z,4.33
2019-05-26T07:36:56.778Z,4.30
2019-05-26T07:39:24.668Z,4.07
2019-05-26T07:42:08.583Z,3.57
2019-05-26T07:44:22.346Z,3.83
2019-05-26T07:46:50.175Z,4.27
2019-05-26T07:49:30.125Z,4.07
2019-05-26T07:51:59.817Z,5.03
2019-05-26T07:54:27.630Z,3.90
2019-05-26T07:57:03.412Z,4.30
2019-05-26T07:59:31.591Z,4.37
2019-05-26T08:02:02.569Z,4.70
2019-05-26T08:04:30.520Z,5.07
2019-05-26T08:07:06.442Z,4.70
2019-05-26T08:09:34.446Z,4.93
2019-05-26T08:12:03.358Z,4.97
2019-05-26T08:14:31.245Z,4.70
2019-05-26T08:17:03.031Z,4.57
2019-05-26T08:19:36.951Z,4.50
2019-05-26T08:22:12.670Z,4.47
2019-05-26T08:24:47.147Z,4.70
2019-05-26T08:27:16.880Z,4.60
2019-05-26T08:29:45.054Z,4.53
2019-05-26T08:32:16.498Z,4.33
2019-05-26T08:34:44.802Z,5.50
2019-05-26T08:37:12.755Z,5.07
2019-05-26T08:39:40.917Z,4.40
2019-05-26T08:42:24.611Z,4.53
2019-05-26T08:44:40.353Z,4.27
2019-05-26T08:47:08.894Z,4.57
2019-05-26T08:49:38.058Z,4.90
2019-05-26T08:52:08.525Z,4.80
2019-05-26T08:54:39.809Z,4.67
2019-05-26T08:57:09.795Z,4.80
2019-05-26T08:59:42.396Z,4.60
2019-05-26T09:02:10.480Z,4.60
2019-05-26T09:04:38.272Z,4.50
2019-05-26T09:07:06.133Z,4.80
2019-05-26T09:09:33.859Z,4.83
2019-05-26T09:12:04.584Z,4.33
2019-05-26T09:14:32.698Z,5.00
2019-05-26T09:17:00.342Z,5.17
2019-05-26T09:19:31.776Z,4.90
2019-05-26T09:21:59.469Z,5.00
2019-05-26T09:24:27.827Z,5.03
2019-05-26T09:26:55.914Z,4.67
2019-05-26T09:29:24.123Z,4.47
2019-05-26T09:31:52.320Z,4.13
2019-05-26T09:34:25.303Z,4.47
2019-05-26T09:36:57.135Z,4.27
2019-05-26T09:39:27.429Z,4.37
2019-05-26T09:41:56.021Z,4.40
2019-05-26T09:44:23.790Z,3.90
2019-05-26T09:46:53.335Z,3.70
2019-05-26T09:49:21.233Z,4.07
2019-05-26T09:51:49.020Z,3.93
2019-05-26T09:54:18.606Z,3.77
2019-05-26T09:56:52.408Z,4.30
2019-05-26T09:59:22.037Z,4.50
2019-05-26T10:01:51.637Z,4.30
2019-05-26T10:04:19.440Z,4.17
2019-05-26T10:06:47.452Z,4.20
2019-05-26T10:09:15.195Z,4.20
2019-05-26T10:11:43.030Z,3.80
2019-05-26T10:14:11.345Z,4.03
2019-05-26T10:16:39.277Z,4.20
2019-05-26T10:19:07.228Z,4.37
2019-05-26T10:21:36.102Z,4.40
2019-05-26T10:24:04.001Z,4.50
2019-05-26T10:26:31.693Z,4.70
2019-05-26T10:29:00.713Z,4.43
2019-05-26T10:31:32.549Z,4.20
2019-05-26T10:34:00.279Z,4.67
2019-05-26T10:36:28.346Z,4.50
2019-05-26T10:38:58.361Z,4.80
2019-05-26T10:41:26.886Z,4.03
2019-05-26T10:43:55.719Z,4.07
2019-05-26T10:46:24.689Z,4.60
2019-05-26T10:48:53.569Z,4.67
2019-05-26T10:51:21.442Z,4.30
2019-05-26T10:53:49.217Z,4.30
2019-05-26T10:56:17.505Z,4.40
2019-05-26T10:58:46.815Z,4.80
2019-05-26T11:01:31.809Z,4.77
2019-05-26T11:03:59.535Z,4.63
2019-05-26T11:06:27.366Z,4.97
2019-05-26T11:08:55.090Z,4.80
2019-05-26T11:11:26.315Z,5.00
2019-05-26T11:14:02.805Z,4.83
2019-05-26T11:16:28.180Z,5.10
2019-05-26T11:18:55.955Z,4.90
2019-05-26T11:21:41.062Z,5.03
2019-05-26T11:24:13.760Z,5.10
2019-05-26T11:26:41.640Z,4.90
2019-05-26T11:29:14.725Z,5.10
2019-05-26T11:31:46.371Z,4.77
2019-05-26T11:34:15.516Z,5.60
2019-05-26T11:36:43.463Z,5.17
2019-05-26T11:39:14.601Z,5.77
2019-05-26T11:41:43.102Z,5.60
2019-05-26T11:44:17.790Z,5.73
2019-05-26T11:46:42.434Z,5.33
2019-05-26T11:49:12.495Z,5.53
2019-05-26T11:51:43.611Z,5.97
2019-05-26T11:54:13.118Z,5.13
2019-05-26T11:56:41.138Z,5.50
2019-05-26T11:59:09.276Z,5.20
2019-05-26T12:01:40.218Z,5.27
2019-05-26T12:04:08.453Z,5.80
2019-05-26T12:06:36.456Z,5.83
2019-05-26T12:09:08.578Z,5.77
2019-05-26T12:11:36.992Z,5.70
2019-05-26T12:14:05.102Z,5.80
2019-05-26T12:16:33.764Z,5.20
2019-05-26T12:19:01.498Z,5.30
2019-05-26T12:21:29.340Z,5.77
2019-05-26T12:23:57.157Z,5.80
2019-05-26T12:26:26.258Z,6.07
2019-05-26T12:28:57.107Z,5.57
2019-05-26T12:31:31.759Z,5.80
2019-05-26T12:33:59.723Z,5.80
2019-05-26T12:36:27.932Z,6.13
2019-05-26T12:38:55.905Z,5.60
2019-05-26T12:41:23.865Z,5.30
2019-05-26T12:43:52.302Z,5.37
2019-05-26T12:46:22.038Z,5.60
2019-05-26T12:48:59.277Z,5.30
2019-05-26T12:51:32.426Z,5.10
2019-05-26T12:54:06.554Z,4.63
2019-05-26T12:56:34.425Z,4.60
2019-05-26T12:59:03.842Z,4.83
2019-05-26T13:01:37.937Z,5.10
2019-05-26T13:04:08.541Z,5.53
2019-05-26T13:06:36.938Z,4.70
2019-05-26T13:09:06.332Z,5.20
2019-05-26T13:11:46.888Z,5.27
2019-05-26T13:14:18.044Z,5.00
2019-05-26T13:16:45.852Z,5.37
2019-05-26T13:19:27.395Z,5.27
2019-05-26T13:21:55.357Z,4.90
2019-05-26T13:24:24.802Z,5.10
2019-05-26T13:26:58.844Z,5.37
2019-05-26T13:29:28.624Z,4.90
2019-05-26T13:31:56.344Z,6.30
2019-05-26T13:34:26.597Z,5.47
2019-05-26T13:36:54.306Z,5.80
2019-05-26T13:39:23.305Z,5.70
2019-05-26T13:41:51.181Z,6.10
2019-05-26T13:44:30.411Z,5.50
2019-05-26T13:46:58.281Z,5.63
2019-05-26T13:52:01.797Z,5.30
2019-05-26T13:54:30.613Z,5.10
2019-05-26T13:57:00.354Z,5.27
2019-05-26T14:04:57.687Z,5.10
2019-05-26T14:07:25.917Z,5.10
2019-05-26T14:12:34.512Z,4.73
2019-05-26T14:15:05.282Z,5.00
2019-05-26T14:17:34.880Z,4.90
2019-05-26T14:20:07.071Z,4.40
2019-05-26T14:22:34.741Z,4.73
2019-05-26T14:25:15.582Z,4.90
2019-05-26T14:27:42.624Z,4.50
2019-05-26T14:30:10.504Z,4.30
2019-05-26T14:32:38.310Z,4.20
2019-05-26T14:35:06.450Z,4.33
2019-05-26T14:37:34.162Z,3.77
2019-05-26T14:40:04.989Z,4.30
2019-05-26T14:42:33.454Z,4.10
2019-05-26T14:45:03.851Z,4.13
2019-05-26T14:47:31.042Z,4.00
2019-05-26T14:49:58.814Z,4.20
2019-05-26T14:52:29.052Z,3.77
2019-05-26T14:54:56.905Z,3.58
2019-05-26T14:57:25.495Z,3.65
2019-05-26T14:59:54.764Z,3.80
2019-05-26T15:02:23.047Z,3.75
2019-05-26T15:04:52.176Z,3.27
2019-05-26T15:07:20.143Z,3.35
2019-05-26T15:09:48.038Z,3.72
2019-05-26T15:12:15.772Z,3.60
2019-05-26T15:14:43.730Z,3.37
2019-05-26T15:17:11.754Z,3.37
2019-05-26T15:19:50.273Z,3.73
2019-05-26T15:22:19.293Z,3.30
2019-05-26T15:24:47.571Z,3.43
2019-05-26T15:27:15.336Z,3.57
2019-05-26T15:29:43.146Z,3.10
2019-05-26T15:32:11.295Z,3.27
2019-05-26T15:34:39.237Z,3.20
2019-05-26T15:37:07.217Z,3.30
2019-05-26T15:39:36.982Z,3.30
2019-05-26T15:42:08.127Z,3.40
2019-05-26T15:44:36.610Z,3.50
2019-05-26T15:47:04.782Z,3.40
2019-05-26T15:49:32.559Z,3.40
2019-05-26T15:52:00.688Z,3.70
2019-05-26T15:54:28.787Z,3.63
2019-05-26T15:56:56.933Z,3.40
2019-05-26T15:59:27.064Z,3.60
2019-05-26T16:01:56.079Z,3.17
2019-05-26T16:04:24.734Z,3.73
2019-05-26T16:06:52.495Z,3.53
2019-05-26T16:09:20.803Z,3.90
2019-05-26T16:11:48.784Z,3.70
2019-05-26T16:14:16.620Z,3.67
2019-05-26T16:16:51.287Z,3.50
2019-05-26T16:19:20.513Z,3.37
2019-05-26T16:21:48.177Z,3.47
2019-05-26T16:24:16.452Z,3.77
2019-05-26T16:26:44.260Z,3.40
2019-05-26T16:29:12.138Z,3.63
2019-05-26T16:31:39.877Z,3.60
2019-05-26T16:34:08.063Z,3.93
2019-05-26T16:36:36.008Z,3.73
2019-05-26T16:39:06.811Z,3.50
2019-05-26T16:41:34.844Z,3.50
2019-05-26T16:44:03.697Z,3.40
2019-05-26T16:46:36.940Z,3.47
2019-05-26T16:49:04.832Z,3.40
2019-05-26T16:51:32.479Z,3.17
2019-05-26T16:54:00.541Z,3.33
2019-05-26T16:56:28.308Z,3.30
2019-05-26T16:58:56.693Z,3.27
2019-05-26T17:01:25.016Z,3.60
2019-05-26T17:03:54.038Z,3.53
2019-05-26T17:06:23.661Z,3.47
2019-05-26T17:08:54.813Z,3.70
2019-05-26T17:11:22.700Z,3.70
2019-05-26T17:13:50.439Z,3.20
2019-05-26T17:16:18.165Z,3.80
2019-05-26T17:18:46.411Z,3.97
2019-05-26T17:21:15.268Z,3.63
2019-05-26T17:23:43.238Z,3.73
2019-05-26T17:26:12.690Z,3.47
2019-05-26T17:28:40.701Z,3.60
2019-05-26T17:31:20.979Z,3.70
2019-05-26T17:36:46.581Z,3.90
2019-05-26T17:39:14.390Z,3.37
2019-05-26T17:41:42.397Z,3.77
2019-05-26T17:44:10.225Z,3.73
2019-05-26T17:46:39.138Z,3.83
2019-05-26T17:49:06.945Z,3.60
2019-05-26T17:51:38.106Z,3.70
2019-05-26T17:54:05.936Z,3.60
2019-05-26T17:56:35.957Z,3.50
2019-05-26T17:59:04.942Z,4.10
2019-05-26T18:01:33.020Z,3.73
2019-05-26T18:04:01.064Z,3.87
2019-05-26T18:06:28.940Z,3.77
2019-05-26T18:08:56.804Z,3.70
2019-05-26T18:11:24.833Z,3.97
2019-05-26T18:13:52.802Z,3.57
2019-05-26T18:16:20.596Z,3.37
2019-05-26T18:18:50.051Z,3.67
2019-05-26T18:21:17.871Z,4.07
2019-05-26T18:23:45.630Z,4.27
2019-05-26T18:26:13.542Z,4.60
2019-05-26T18:28:41.643Z,3.60
2019-05-26T18:31:09.931Z,3.80
2019-05-26T18:33:37.639Z,3.80
2019-05-26T18:36:07.020Z,3.50
2019-05-26T18:38:34.910Z,3.73
2019-05-26T18:41:02.727Z,3.80
2019-05-26T18:43:37.376Z,3.93
2019-05-26T18:46:02.854Z,3.90
2019-05-26T18:48:31.033Z,4.00
2019-05-26T18:51:02.394Z,4.00
2019-05-26T18:53:30.493Z,3.73
2019-05-26T18:56:00.653Z,4.10
2019-05-26T18:58:28.574Z,3.93
2019-05-26T19:00:57.018Z,4.20
2019-05-26T19:03:25.819Z,4.00
2019-05-26T19:05:56.158Z,4.13
2019-05-26T19:08:25.548Z,4.60
2019-05-26T19:10:56.342Z,4.17
2019-05-26T19:13:30.408Z,4.50
2019-05-26T19:15:58.250Z,4.20
2019-05-26T19:18:26.531Z,4.43
2019-05-26T19:20:55.041Z,4.80
2019-05-26T19:23:24.590Z,5.00
2019-05-26T19:25:52.616Z,4.40
2019-05-26T19:28:20.450Z,4.57
2019-05-26T19:30:50.877Z,4.53
2019-05-26T19:33:18.654Z,4.40
2019-05-26T19:35:46.563Z,4.93
2019-05-26T19:38:14.397Z,4.63
2019-05-26T19:40:42.237Z,4.67
2019-05-26T19:43:10.088Z,4.93
2019-05-26T19:45:37.923Z,4.90
2019-05-26T19:48:05.743Z,4.97
2019-05-26T19:50:33.438Z,5.73
2019-05-26T19:53:02.486Z,6.33
2019-05-26T19:55:33.225Z,5.80
2019-05-26T19:58:05.749Z,5.23
2019-05-26T20:00:33.567Z,5.33
2019-05-26T20:03:01.203Z,5.53
2019-05-26T20:05:29.086Z,5.67
2019-05-26T20:07:56.933Z,5.57
2019-05-26T20:10:24.791Z,6.00
2019-05-26T20:12:52.509Z,5.53
2019-05-26T20:15:20.388Z,5.70
2019-05-26T20:17:48.106Z,5.70
2019-05-26T20:20:16.107Z,5.53
2019-05-26T20:22:43.880Z,5.47
2019-05-26T20:25:11.701Z,6.10
2019-05-26T20:27:39.490Z,6.17
2019-05-26T20:30:08.732Z,6.00
2019-05-26T20:32:36.501Z,6.20
2019-05-26T20:35:04.666Z,5.93
2019-05-26T20:37:32.449Z,5.90
2019-05-26T20:40:00.715Z,7.00
2019-05-26T20:42:28.686Z,6.17
2019-05-26T20:44:56.401Z,6.30
2019-05-26T20:47:24.142Z,6.13
2019-05-26T20:49:52.040Z,6.63
2019-05-26T20:52:19.720Z,6.83
2019-05-26T20:54:47.790Z,6.80
2019-05-26T20:57:15.679Z,7.27
2019-05-26T20:59:43.316Z,7.10
2019-05-26T21:02:11.108Z,7.37
2019-05-26T21:04:40.606Z,7.33
2019-05-26T21:07:08.492Z,8.10
2019-05-26T21:09:36.327Z,7.73
2019-05-26T21:12:04.204Z,8.30
2019-05-26T21:14:32.075Z,9.23
2019-05-26T21:16:59.828Z,8.40
2019-05-26T21:19:27.735Z,8.57
2019-05-26T21:21:55.613Z,8.30
2019-05-26T21:24:23.368Z,8.73
2019-05-26T21:26:53.105Z,9.40
2019-05-26T21:29:20.550Z,8.80
2019-05-26T21:31:48.286Z,8.40
2019-05-26T21:34:16.260Z,8.70
2019-05-26T21:36:44.057Z,8.30
2019-05-26T21:39:12.064Z,8.67
2019-05-26T21:41:42.137Z,8.07
2019-05-26T21:44:09.842Z,7.97
2019-05-26T21:46:38.229Z,8.40
2019-05-26T21:49:06.243Z,7.90
2019-05-26T21:51:35.790Z,7.67
2019-05-26T21:54:03.718Z,7.57
2019-05-26T21:56:31.487Z,7.77
2019-05-26T21:59:00.936Z,6.80
2019-05-26T22:01:29.033Z,7.53
2019-05-26T22:03:57.674Z,7.13
2019-05-26T22:06:25.908Z,7.50
2019-05-26T22:08:54.017Z,7.40
2019-05-26T22:11:21.950Z,7.30
2019-05-26T22:13:49.836Z,7.67
2019-05-26T22:16:17.793Z,7.67
2019-05-26T22:18:47.283Z,7.30
2019-05-26T22:21:18.122Z,6.87
2019-05-26T22:23:45.877Z,7.33
2019-05-26T22:26:13.612Z,7.73
2019-05-26T22:28:42.216Z,7.60
2019-05-26T22:31:09.962Z,7.50
2019-05-26T22:33:37.604Z,7.63
2019-05-26T22:36:05.761Z,7.50
2019-05-26T22:38:33.398Z,7.97
2019-05-26T22:41:01.056Z,7.80
2019-05-26T22:43:28.860Z,8.00
2019-05-26T22:45:57.903Z,7.67
2019-05-26T22:48:25.770Z,8.03
2019-05-26T22:50:53.717Z,8.00
2019-05-26T22:53:21.487Z,7.97
2019-05-26T22:55:49.947Z,7.10
2019-05-26T22:58:17.837Z,7.60
2019-05-26T23:00:45.649Z,7.50
2019-05-26T23:03:13.430Z,6.57
2019-05-26T23:05:41.778Z,7.87
2019-05-26T23:08:11.100Z,7.07
2019-05-26T23:10:38.931Z,7.23
2019-05-26T23:13:07.931Z,7.47
2019-05-26T23:15:35.623Z,7.43
2019-05-26T23:18:05.023Z,7.03
2019-05-26T23:20:34.021Z,7.47
2019-05-26T23:23:02.015Z,7.30
2019-05-26T23:25:29.748Z,7.77
2019-05-26T23:27:57.644Z,7.30
2019-05-26T23:30:25.781Z,7.33
2019-05-26T23:32:53.643Z,7.43
2019-05-26T23:35:22.634Z,7.43
2019-05-26T23:37:50.413Z,6.87
2019-05-26T23:40:19.629Z,8.00
2019-05-26T23:42:47.326Z,7.07
2019-05-26T23:45:15.305Z,7.70
2019-05-26T23:47:43.075Z,8.10
2019-05-26T23:50:10.886Z,8.03
2019-05-26T23:52:38.597Z,8.57
2019-05-26T23:55:08.674Z,9.00
2019-05-26T23:57:37.838Z,8.77
